createdAt,value
2022-07-26T00:02:18.041Z,1.67
2022-07-26T00:04:45.926Z,2.17
2022-07-26T00:07:13.414Z,1.90
2022-07-26T00:09:47.801Z,2.13
2022-07-26T00:14:44.356Z,1.90
2022-07-26T00:17:11.812Z,1.80
2022-07-26T00:19:39.354Z,1.92
2022-07-26T00:22:24.555Z,1.77
2022-07-26T00:27:39.505Z,2.05
2022-07-26T00:30:08.864Z,2.17
2022-07-26T00:32:36.892Z,2.15
2022-07-26T00:35:05.259Z,2.00
2022-07-26T00:37:32.775Z,2.00
2022-07-26T00:40:00.479Z,1.98
2022-07-26T00:42:28.011Z,1.98
2022-07-26T00:44:57.102Z,2.15
2022-07-26T00:47:24.884Z,2.33
2022-07-26T00:49:52.428Z,2.00
2022-07-26T00:52:19.971Z,2.08
2022-07-26T00:54:47.924Z,1.98
2022-07-26T00:57:15.908Z,1.90
2022-07-26T00:59:43.728Z,2.08
2022-07-26T01:02:12.722Z,2.30
2022-07-26T01:04:40.456Z,2.15
2022-07-26T01:07:15.209Z,2.03
2022-07-26T01:09:43.791Z,2.40
2022-07-26T01:12:11.372Z,2.30
2022-07-26T01:14:38.893Z,2.40
2022-07-26T01:17:06.492Z,2.40
2022-07-26T01:19:35.318Z,2.70
2022-07-26T01:22:04.237Z,2.30
2022-07-26T01:24:31.775Z,2.70
2022-07-26T01:26:59.386Z,2.40
2022-07-26T01:29:34.677Z,2.22
2022-07-26T01:32:04.892Z,2.40
2022-07-26T01:34:32.634Z,2.22
2022-07-26T01:37:00.360Z,2.20
2022-07-26T01:39:29.230Z,2.35
2022-07-26T01:41:57.503Z,2.55
2022-07-26T01:44:25.397Z,2.70
2022-07-26T01:46:52.937Z,2.67
2022-07-26T01:49:20.511Z,2.20
2022-07-26T01:51:48.041Z,2.67
2022-07-26T01:54:15.565Z,2.40
2022-07-26T01:56:51.485Z,2.53
2022-07-26T01:59:18.966Z,2.45
2022-07-26T02:01:46.754Z,2.40
2022-07-26T02:04:28.365Z,2.50
2022-07-26T02:06:55.864Z,2.67
2022-07-26T02:09:23.370Z,2.70
2022-07-26T02:11:54.733Z,2.22
2022-07-26T02:14:25.502Z,2.70
2022-07-26T02:16:59.570Z,2.70
2022-07-26T02:19:27.565Z,2.63
2022-07-26T02:21:55.191Z,2.53
2022-07-26T02:24:22.910Z,2.78
2022-07-26T02:26:50.474Z,2.55
2022-07-26T02:29:19.322Z,2.45
2022-07-26T02:31:48.563Z,2.33
2022-07-26T02:34:17.061Z,2.70
2022-07-26T02:36:44.690Z,2.42
2022-07-26T02:39:12.629Z,2.33
2022-07-26T02:41:40.560Z,2.40
2022-07-26T02:44:09.637Z,2.72
2022-07-26T02:46:39.236Z,2.47
2022-07-26T02:49:06.874Z,2.33
2022-07-26T02:51:34.458Z,2.10
2022-07-26T02:54:02.023Z,2.40
2022-07-26T02:56:29.540Z,2.25
2022-07-26T02:58:57.317Z,2.40
2022-07-26T03:01:24.865Z,2.53
2022-07-26T03:03:53.970Z,2.33
2022-07-26T03:06:21.644Z,2.15
2022-07-26T03:08:49.536Z,2.30
2022-07-26T03:11:17.289Z,2.25
2022-07-26T03:13:44.822Z,2.25
2022-07-26T03:16:12.403Z,2.22
2022-07-26T03:18:56.350Z,2.40
2022-07-26T03:21:24.031Z,2.20
2022-07-26T03:23:51.611Z,2.65
2022-07-26T03:26:19.145Z,2.53
2022-07-26T03:28:47.008Z,2.20
2022-07-26T03:31:15.059Z,2.10
2022-07-26T03:33:42.640Z,2.50
2022-07-26T03:36:12.847Z,2.35
2022-07-26T03:38:43.357Z,2.72
2022-07-26T03:41:13.681Z,2.70
2022-07-26T03:43:41.588Z,4.30
2022-07-26T03:46:09.212Z,4.18
2022-07-26T03:48:36.875Z,2.78
2022-07-26T03:51:04.593Z,2.70
2022-07-26T03:53:34.469Z,3.08
2022-07-26T03:56:20.427Z,2.95
2022-07-26T03:58:47.946Z,3.03
2022-07-26T04:01:15.637Z,3.33
2022-07-26T04:03:47.571Z,2.88
2022-07-26T04:06:16.186Z,3.45
2022-07-26T04:08:45.306Z,2.78
2022-07-26T04:11:13.016Z,3.67
2022-07-26T04:13:40.525Z,2.75
2022-07-26T04:16:08.333Z,3.00
2022-07-26T04:18:35.909Z,3.10
2022-07-26T04:21:03.513Z,3.00
2022-07-26T04:23:31.123Z,2.97
2022-07-26T04:26:00.047Z,2.97
2022-07-26T04:28:28.927Z,2.90
2022-07-26T04:30:56.489Z,2.78
2022-07-26T04:33:24.080Z,3.10
2022-07-26T04:35:51.678Z,3.20
2022-07-26T04:38:19.241Z,3.00
2022-07-26T04:40:46.958Z,3.17
2022-07-26T04:43:17.372Z,2.88
2022-07-26T04:45:45.724Z,2.97
2022-07-26T04:48:13.690Z,3.10
2022-07-26T04:50:41.253Z,3.38
2022-07-26T04:53:10.706Z,2.78
2022-07-26T04:55:38.498Z,3.33
2022-07-26T04:58:06.126Z,3.50
2022-07-26T05:00:56.387Z,2.97
2022-07-26T05:03:24.979Z,3.47
2022-07-26T05:05:52.895Z,3.30
2022-07-26T05:08:20.522Z,3.20
2022-07-26T05:10:54.649Z,3.10
2022-07-26T05:16:00.438Z,2.90
2022-07-26T05:18:31.911Z,3.05
2022-07-26T05:21:13.864Z,3.07
2022-07-26T05:23:41.419Z,3.08
2022-07-26T05:26:08.947Z,3.40
2022-07-26T05:28:36.514Z,3.28
2022-07-26T05:31:05.539Z,3.40
2022-07-26T05:33:33.071Z,3.25
2022-07-26T05:36:00.588Z,3.35
2022-07-26T05:38:28.081Z,3.42
2022-07-26T05:40:55.595Z,3.53
2022-07-26T05:43:23.101Z,4.05
2022-07-26T05:45:51.313Z,3.38
2022-07-26T05:48:20.598Z,3.15
2022-07-26T05:50:48.166Z,3.38
2022-07-26T05:53:17.581Z,3.05
2022-07-26T05:55:45.118Z,3.75
2022-07-26T05:58:13.187Z,3.47
2022-07-26T06:00:42.324Z,3.83
2022-07-26T06:03:25.725Z,3.60
2022-07-26T06:05:57.189Z,3.63
2022-07-26T06:08:25.660Z,4.00
2022-07-26T06:10:54.224Z,3.67
2022-07-26T06:13:21.799Z,4.07
2022-07-26T06:15:49.974Z,3.33
2022-07-26T06:18:17.579Z,4.28
2022-07-26T06:20:47.303Z,4.32
2022-07-26T06:23:16.317Z,3.80
2022-07-26T06:25:43.920Z,4.82
2022-07-26T06:28:12.237Z,4.22
2022-07-26T06:30:40.888Z,4.50
2022-07-26T06:33:09.474Z,4.22
2022-07-26T06:35:38.673Z,5.13
2022-07-26T06:38:06.969Z,5.07
2022-07-26T06:40:36.407Z,5.20
2022-07-26T06:43:04.824Z,6.22
2022-07-26T06:45:32.998Z,6.22
2022-07-26T06:48:00.658Z,6.38
2022-07-26T06:50:28.251Z,6.97
2022-07-26T06:52:55.874Z,6.95
2022-07-26T06:55:23.629Z,7.65
2022-07-26T06:57:52.465Z,8.27
2022-07-26T07:00:20.127Z,8.40
2022-07-26T07:02:47.713Z,8.88
2022-07-26T07:05:15.294Z,9.30
2022-07-26T07:07:42.906Z,8.75
2022-07-26T07:10:12.646Z,9.85
2022-07-26T07:12:41.733Z,9.35
2022-07-26T07:15:11.757Z,9.80
2022-07-26T07:17:39.485Z,9.70
2022-07-26T07:20:07.781Z,9.32
2022-07-26T07:22:35.273Z,8.68
2022-07-26T07:25:03.123Z,8.90
2022-07-26T07:27:33.634Z,9.13
2022-07-26T07:30:01.138Z,8.48
2022-07-26T07:32:30.033Z,8.32
2022-07-26T07:34:57.594Z,8.13
2022-07-26T07:37:25.154Z,8.13
2022-07-26T07:39:52.686Z,8.43
2022-07-26T07:42:21.534Z,8.23
2022-07-26T07:44:49.969Z,8.77
2022-07-26T07:47:17.605Z,8.25
2022-07-26T07:49:46.436Z,9.00
2022-07-26T07:52:14.014Z,8.30
2022-07-26T07:54:42.293Z,8.93
2022-07-26T07:57:10.073Z,8.05
2022-07-26T07:59:39.231Z,8.45
2022-07-26T08:02:07.606Z,7.60
2022-07-26T08:04:35.708Z,8.57
2022-07-26T08:07:05.083Z,8.77
2022-07-26T08:09:34.267Z,8.05
2022-07-26T08:12:01.899Z,8.05
2022-07-26T08:14:29.682Z,7.82
2022-07-26T08:16:57.334Z,8.68
2022-07-26T08:19:25.889Z,8.65
2022-07-26T08:21:55.056Z,7.40
2022-07-26T08:24:24.346Z,9.02
2022-07-26T08:26:53.914Z,7.72
2022-07-26T08:29:21.500Z,8.88
2022-07-26T08:31:50.450Z,7.88
2022-07-26T08:34:18.818Z,8.00
2022-07-26T08:37:07.219Z,7.72
2022-07-26T08:39:35.272Z,7.75
2022-07-26T08:42:03.616Z,7.47
2022-07-26T08:44:31.290Z,8.35
2022-07-26T08:46:58.861Z,7.32
2022-07-26T08:49:26.541Z,7.40
2022-07-26T08:51:54.261Z,7.20
2022-07-26T08:54:22.074Z,7.10
2022-07-26T08:56:54.442Z,6.50
2022-07-26T08:59:23.238Z,5.90
2022-07-26T09:01:54.079Z,6.07
2022-07-26T09:04:31.756Z,5.95
2022-07-26T09:07:04.951Z,5.40
2022-07-26T09:09:33.798Z,5.22
2022-07-26T09:12:14.734Z,4.97
2022-07-26T09:14:42.376Z,4.88
2022-07-26T09:17:09.938Z,4.82
2022-07-26T09:19:37.476Z,5.20
2022-07-26T09:22:10.864Z,5.05
2022-07-26T09:24:41.173Z,5.10
2022-07-26T09:27:11.753Z,5.22
2022-07-26T09:29:50.811Z,5.43
2022-07-26T09:32:20.354Z,4.93
2022-07-26T09:34:52.934Z,5.25
2022-07-26T09:37:33.792Z,4.72
2022-07-26T09:40:04.870Z,4.63
2022-07-26T09:42:33.765Z,5.45
2022-07-26T09:45:01.869Z,4.75
2022-07-26T09:47:39.543Z,4.53
2022-07-26T09:50:12.263Z,4.22
2022-07-26T09:52:39.858Z,4.05
2022-07-26T09:55:09.465Z,4.18
2022-07-26T09:57:38.618Z,4.13
2022-07-26T10:00:07.765Z,3.88
2022-07-26T10:02:35.699Z,4.28
2022-07-26T10:05:03.242Z,4.15
2022-07-26T10:07:31.338Z,4.40
2022-07-26T10:10:06.071Z,4.47
2022-07-26T10:15:02.906Z,4.30
2022-07-26T10:17:42.384Z,4.00
2022-07-26T10:20:17.529Z,5.13
2022-07-26T10:22:51.984Z,4.82
2022-07-26T10:25:56.216Z,4.78
2022-07-26T10:28:29.701Z,4.93
2022-07-26T10:31:33.674Z,5.00
2022-07-26T10:34:04.331Z,5.07
2022-07-26T10:36:37.458Z,5.28
2022-07-26T10:39:13.848Z,4.53
2022-07-26T10:41:44.085Z,5.00
2022-07-26T10:44:26.856Z,5.28
2022-07-26T10:47:11.183Z,5.38
2022-07-26T10:49:41.597Z,5.70
2022-07-26T10:52:12.524Z,4.88
2022-07-26T10:55:19.390Z,4.57
2022-07-26T10:57:49.383Z,4.15
2022-07-26T11:00:22.111Z,4.47
2022-07-26T11:02:54.018Z,3.92
2022-07-26T11:05:28.532Z,3.45
2022-07-26T11:10:31.283Z,5.15
2022-07-26T11:13:06.928Z,4.65
2022-07-26T11:15:34.912Z,4.05
2022-07-26T11:18:28.032Z,4.30
2022-07-26T11:20:58.894Z,4.43
2022-07-26T11:23:32.320Z,4.82
2022-07-26T11:26:12.603Z,4.57
2022-07-26T11:28:48.072Z,4.65
2022-07-26T11:31:16.635Z,4.80
2022-07-26T11:33:48.903Z,5.00
2022-07-26T11:36:18.977Z,5.05
2022-07-26T11:38:48.130Z,4.50
2022-07-26T11:41:16.325Z,4.50
2022-07-26T11:43:44.166Z,3.83
2022-07-26T11:46:11.869Z,3.53
2022-07-26T11:48:46.623Z,3.00
2022-07-26T11:51:16.272Z,2.60
2022-07-26T11:53:46.774Z,2.70
2022-07-26T11:56:17.349Z,2.42
2022-07-26T11:58:47.071Z,2.10
2022-07-26T12:01:17.096Z,2.20
2022-07-26T12:03:47.035Z,2.20
2022-07-26T12:06:17.500Z,2.42
2022-07-26T12:08:54.180Z,2.53
2022-07-26T12:11:25.677Z,2.60
2022-07-26T12:13:56.563Z,2.78
2022-07-26T12:16:41.539Z,2.40
2022-07-26T12:21:45.933Z,2.45
2022-07-26T12:24:36.826Z,1.63
2022-07-26T12:27:09.041Z,1.88
2022-07-26T12:29:37.259Z,1.67
2022-07-26T12:32:12.124Z,1.40
2022-07-26T12:34:41.467Z,1.50
2022-07-26T12:37:11.248Z,1.00
2022-07-26T12:39:41.267Z,1.38
2022-07-26T12:42:22.098Z,0.73
2022-07-26T12:44:49.909Z,0.90
2022-07-26T12:47:17.606Z,0.90
2022-07-26T12:49:46.505Z,0.95
2022-07-26T12:52:15.903Z,1.20
2022-07-26T12:54:45.961Z,0.80
2022-07-26T12:57:13.528Z,0.68
2022-07-26T12:59:45.009Z,0.82
2022-07-26T13:02:13.226Z,1.00
2022-07-26T13:04:41.165Z,1.02
2022-07-26T13:07:09.191Z,1.00
2022-07-26T13:09:37.015Z,1.10
2022-07-26T13:12:07.725Z,1.30
2022-07-26T13:14:36.965Z,1.10
2022-07-26T13:17:05.561Z,1.45
2022-07-26T13:19:33.427Z,1.50
2022-07-26T13:22:02.101Z,1.60
2022-07-26T13:24:31.238Z,1.60
2022-07-26T13:27:01.470Z,1.50
2022-07-26T13:29:31.567Z,1.67
2022-07-26T13:32:00.135Z,1.55
2022-07-26T13:34:34.779Z,1.90
2022-07-26T13:37:08.082Z,1.75
2022-07-26T13:39:36.253Z,1.33
2022-07-26T13:42:04.481Z,1.50
2022-07-26T13:44:33.330Z,1.30
2022-07-26T13:47:02.071Z,1.48
2022-07-26T13:49:30.777Z,1.00
2022-07-26T13:51:58.491Z,0.95
2022-07-26T13:54:28.241Z,1.25
2022-07-26T13:56:56.583Z,1.38
2022-07-26T13:59:24.355Z,1.40
2022-07-26T14:01:54.394Z,1.58
2022-07-26T14:04:22.226Z,1.50
2022-07-26T14:06:50.453Z,1.38
2022-07-26T14:09:19.009Z,1.50
2022-07-26T14:11:46.647Z,1.30
2022-07-26T14:14:14.655Z,1.60
2022-07-26T14:16:42.976Z,1.35
2022-07-26T14:19:15.907Z,1.25
2022-07-26T14:21:47.318Z,1.40
2022-07-26T14:24:27.514Z,1.43
2022-07-26T14:26:58.797Z,1.27
2022-07-26T14:29:27.449Z,1.30
2022-07-26T14:31:55.110Z,1.05
2022-07-26T14:34:24.086Z,1.38
2022-07-26T14:36:51.676Z,1.27
2022-07-26T14:39:19.224Z,1.20
2022-07-26T14:41:46.779Z,1.40
2022-07-26T14:44:14.572Z,1.10
2022-07-26T14:46:43.673Z,1.27
2022-07-26T14:49:11.251Z,1.20
2022-07-26T14:51:40.276Z,1.40
2022-07-26T14:54:08.535Z,1.20
2022-07-26T14:56:37.597Z,1.73
2022-07-26T14:59:05.167Z,1.80
2022-07-26T15:01:32.952Z,1.50
2022-07-26T15:04:00.575Z,1.65
2022-07-26T15:06:28.142Z,1.70
2022-07-26T15:08:57.109Z,1.70
2022-07-26T15:11:24.688Z,1.63
2022-07-26T15:13:53.680Z,2.35
2022-07-26T15:16:21.280Z,2.00
2022-07-26T15:18:48.813Z,1.52
2022-07-26T15:21:16.959Z,1.52
2022-07-26T15:23:44.525Z,1.92
2022-07-26T15:26:13.442Z,1.33
2022-07-26T15:28:40.970Z,1.60
2022-07-26T15:31:10.237Z,1.83
2022-07-26T15:33:37.900Z,2.00
2022-07-26T15:36:06.423Z,2.03
2022-07-26T15:38:34.108Z,2.40
2022-07-26T15:41:01.664Z,2.35
2022-07-26T15:43:48.453Z,2.65
2022-07-26T15:46:17.176Z,2.00
2022-07-26T15:48:45.602Z,2.08
2022-07-26T15:51:14.899Z,2.00
2022-07-26T15:53:46.567Z,1.77
2022-07-26T15:56:14.536Z,1.88
2022-07-26T15:58:43.467Z,1.67
2022-07-26T16:01:12.686Z,1.80
2022-07-26T16:03:40.391Z,1.90
2022-07-26T16:06:08.006Z,1.70
2022-07-26T16:08:47.400Z,2.10
2022-07-26T16:11:23.536Z,1.75
2022-07-26T16:13:52.421Z,1.70
2022-07-26T16:16:30.010Z,1.90
2022-07-26T16:18:57.842Z,1.25
2022-07-26T16:21:25.560Z,1.35
2022-07-26T16:23:53.163Z,1.52
2022-07-26T16:26:20.697Z,1.13
2022-07-26T16:28:48.360Z,1.42
2022-07-26T16:31:17.266Z,1.30
2022-07-26T16:33:46.505Z,1.40
2022-07-26T16:36:14.450Z,1.58
2022-07-26T16:38:42.051Z,1.85
2022-07-26T16:41:09.630Z,0.90
2022-07-26T16:43:37.162Z,1.45
2022-07-26T16:46:04.676Z,1.02
2022-07-26T16:48:33.664Z,1.33
2022-07-26T16:51:01.283Z,1.45
2022-07-26T16:53:29.004Z,1.45
2022-07-26T16:55:56.595Z,1.70
2022-07-26T16:58:24.130Z,1.35
2022-07-26T17:00:51.799Z,1.70
2022-07-26T17:03:19.501Z,1.58
2022-07-26T17:05:48.394Z,1.40
2022-07-26T17:08:16.069Z,1.75
2022-07-26T17:10:43.739Z,1.60
2022-07-26T17:13:11.530Z,1.60
2022-07-26T17:15:39.306Z,1.52
2022-07-26T17:18:06.916Z,1.60
2022-07-26T17:20:34.546Z,1.52
2022-07-26T17:23:03.434Z,1.60
2022-07-26T17:25:31.295Z,1.70
2022-07-26T17:27:58.848Z,1.63
2022-07-26T17:30:26.557Z,1.67
2022-07-26T17:32:54.225Z,2.55
2022-07-26T17:35:21.851Z,1.98
2022-07-26T17:37:49.489Z,1.90
2022-07-26T17:40:18.386Z,2.17
2022-07-26T17:42:45.944Z,2.15
2022-07-26T17:45:13.453Z,2.03
2022-07-26T17:47:41.392Z,1.88
2022-07-26T17:52:57.920Z,2.15
2022-07-26T17:55:26.894Z,2.00
2022-07-26T17:57:55.206Z,1.65
2022-07-26T18:00:23.935Z,1.75
2022-07-26T18:02:56.524Z,1.90
2022-07-26T18:05:30.208Z,4.45
2022-07-26T18:08:00.825Z,3.22
2022-07-26T18:10:29.859Z,2.47
2022-07-26T18:12:57.404Z,1.70
2022-07-26T18:15:24.964Z,1.60
2022-07-26T18:17:52.521Z,2.10
2022-07-26T18:20:20.025Z,1.65
2022-07-26T18:22:51.574Z,1.85
2022-07-26T18:25:19.108Z,2.08
2022-07-26T18:27:48.029Z,1.90
2022-07-26T18:30:15.998Z,1.77
2022-07-26T18:32:43.605Z,1.88
2022-07-26T18:35:11.182Z,2.15
2022-07-26T18:37:38.763Z,1.90
2022-07-26T18:40:07.925Z,2.20
2022-07-26T18:42:36.101Z,2.35
2022-07-26T18:45:05.771Z,1.90
2022-07-26T18:47:33.298Z,2.05
2022-07-26T18:50:00.872Z,7.38
2022-07-26T18:52:31.951Z,2.50
2022-07-26T18:55:00.815Z,2.70
2022-07-26T18:57:28.415Z,1.98
2022-07-26T18:59:55.938Z,2.33
2022-07-26T19:02:24.887Z,1.80
2022-07-26T19:04:52.437Z,1.98
2022-07-26T19:07:19.980Z,2.10
2022-07-26T19:09:47.515Z,2.20
2022-07-26T19:12:15.059Z,2.15
2022-07-26T19:14:42.606Z,2.10
2022-07-26T19:17:11.633Z,2.67
2022-07-26T19:19:41.261Z,2.40
2022-07-26T19:22:08.790Z,2.75
2022-07-26T19:24:36.876Z,2.00
2022-07-26T19:27:04.685Z,2.15
2022-07-26T19:29:32.430Z,2.13
2022-07-26T19:31:59.987Z,2.13
2022-07-26T19:34:27.508Z,1.95
2022-07-26T19:36:56.399Z,2.10
2022-07-26T19:39:23.969Z,2.05
2022-07-26T19:41:51.739Z,2.35
2022-07-26T19:44:19.514Z,2.55
2022-07-26T19:46:47.573Z,2.42
2022-07-26T19:49:16.857Z,2.25
2022-07-26T19:51:45.016Z,2.40
2022-07-26T19:54:13.901Z,2.47
2022-07-26T19:56:41.782Z,2.05
2022-07-26T19:59:09.610Z,2.28
2022-07-26T20:01:37.339Z,2.17
2022-07-26T20:04:05.357Z,2.33
2022-07-26T20:06:33.798Z,2.30
2022-07-26T20:09:02.123Z,2.67
2022-07-26T20:11:34.079Z,2.08
2022-07-26T20:14:02.115Z,2.28
2022-07-26T20:16:30.344Z,2.25
2022-07-26T20:18:57.915Z,1.90
2022-07-26T20:21:25.461Z,2.05
2022-07-26T20:23:53.012Z,2.17
2022-07-26T20:26:21.661Z,2.35
2022-07-26T20:28:50.971Z,1.90
2022-07-26T20:31:18.728Z,1.80
2022-07-26T20:33:46.362Z,2.10
2022-07-26T20:36:13.903Z,1.83
2022-07-26T20:38:41.433Z,2.20
2022-07-26T20:41:08.974Z,2.28
2022-07-26T20:43:36.510Z,1.85
2022-07-26T20:46:05.592Z,2.10
2022-07-26T20:48:33.503Z,2.20
2022-07-26T20:51:01.124Z,2.50
2022-07-26T20:53:28.656Z,2.30
2022-07-26T20:55:56.196Z,2.20
2022-07-26T20:58:23.788Z,2.10
2022-07-26T21:00:51.473Z,2.47
2022-07-26T21:03:20.428Z,2.03
2022-07-26T21:05:47.965Z,2.03
2022-07-26T21:08:15.543Z,2.10
2022-07-26T21:10:43.178Z,2.10
2022-07-26T21:13:10.694Z,1.83
2022-07-26T21:15:38.225Z,2.15
2022-07-26T21:18:06.408Z,2.05
2022-07-26T21:20:36.807Z,2.17
2022-07-26T21:23:16.651Z,1.90
2022-07-26T21:25:45.478Z,1.95
2022-07-26T21:28:13.002Z,1.90
2022-07-26T21:30:40.703Z,2.17
2022-07-26T21:33:08.581Z,2.22
2022-07-26T21:35:37.474Z,1.95
2022-07-26T21:38:05.024Z,1.77
2022-07-26T21:40:32.540Z,2.38
2022-07-26T21:43:00.072Z,2.20
2022-07-26T21:45:27.659Z,1.90
2022-07-26T21:47:55.322Z,2.00
2022-07-26T21:50:23.162Z,2.17
2022-07-26T21:52:52.069Z,2.30
2022-07-26T21:55:19.638Z,1.83
2022-07-26T21:57:47.202Z,2.40
2022-07-26T22:00:16.773Z,2.08
2022-07-26T22:02:44.626Z,2.05
2022-07-26T22:05:26.154Z,2.20
2022-07-26T22:07:55.443Z,2.00
2022-07-26T22:10:23.229Z,2.17
2022-07-26T22:12:50.784Z,2.30
2022-07-26T22:15:18.708Z,2.10
2022-07-26T22:17:46.328Z,1.70
2022-07-26T22:20:14.213Z,2.08
2022-07-26T22:22:41.837Z,2.03
2022-07-26T22:25:10.928Z,1.55
2022-07-26T22:27:38.501Z,2.03
2022-07-26T22:30:07.896Z,1.70
2022-07-26T22:32:35.955Z,2.15
2022-07-26T22:35:03.533Z,1.88
2022-07-26T22:37:31.044Z,2.00
2022-07-26T22:39:58.560Z,1.80
2022-07-26T22:42:27.514Z,1.80
2022-07-26T22:44:55.049Z,2.13
2022-07-26T22:47:22.606Z,1.98
2022-07-26T22:49:50.179Z,1.83
2022-07-26T22:52:17.859Z,1.80
2022-07-26T22:54:45.486Z,2.25
2022-07-26T22:57:13.032Z,1.73
2022-07-26T22:59:41.901Z,2.00
2022-07-26T23:02:09.420Z,1.80
2022-07-26T23:04:36.981Z,1.90
2022-07-26T23:07:04.987Z,2.00
2022-07-26T23:09:33.536Z,1.80
2022-07-26T23:12:01.096Z,1.88
2022-07-26T23:14:28.662Z,2.20
2022-07-26T23:16:57.570Z,2.72
2022-07-26T23:19:25.224Z,1.95
2022-07-26T23:21:52.840Z,1.92
2022-07-26T23:24:20.359Z,1.80
2022-07-26T23:26:47.891Z,2.10
2022-07-26T23:29:15.562Z,1.88
2022-07-26T23:31:43.297Z,1.67
2022-07-26T23:34:12.305Z,1.67
2022-07-26T23:36:39.865Z,1.90
2022-07-26T23:39:07.490Z,1.90
2022-07-26T23:41:35.074Z,2.00
2022-07-26T23:44:02.657Z,1.55
2022-07-26T23:46:30.476Z,1.90
2022-07-26T23:49:00.114Z,1.77
2022-07-26T23:51:29.084Z,1.90
2022-07-26T23:53:56.880Z,1.85
2022-07-26T23:56:24.533Z,1.92
2022-07-26T23:58:52.379Z,1.90
